Pagrindinis puslapis
METAR-TAF:

METAR-TAF

Oro uostai :

Båtsfjord, Norvegija

platuma: 70-38N, ilguma: 029-44E, Aukštis: 10 m

Dabartinis oras

Ataskaita buvo paskelbta 33 minutes, ne 20:50 UTC
Vėjas 7 kt iš Pietų/Pietvakarių
Temperatūra 22°C
Drėgmė 60%
Slėgis 1011 hPa
Matomumas 10 km arba daugiau

METAR: ENBS 022050Z AUTO 21007KT 9999 NCD 22/14 Q1011

Laikas: 23:23 (21:23 UTC)


TAF: trūkstamas

Orai ataskaitas ir orų prognozės (METAR, TAF).

turimą stotys yra geltonos ir raudonos taškus žemėlapyje.

Perkelti pele per norėdami pamatyti stoties vardą.

Tada spustelėkite, norėdami matyti oro stebėjimo ir prognozės.

Norėdami pakeisti žemėlapį: spustelėkite ant žalios mygtukų su juodo kryžiaus žemyn,; žalią mygtuką su brūkšneliu, jei norite nutolinti; arba žalių rodyklių gretimoms žemėlapius.


METAR-TAF: